sensor_id;sensor_type;location;lat;lon;timestamp;pressure;altitude;pressure_sealevel;temperature
25514;BMP180;48128;54.242;10.280;2022-09-03T00:00:46;101566.00;;;15.10
25514;BMP180;48128;54.242;10.280;2022-09-03T00:06:11;101568.00;;;15.10
25514;BMP180;48128;54.242;10.280;2022-09-03T00:08:47;101576.00;;;15.10
25514;BMP180;48128;54.242;10.280;2022-09-03T00:11:23;101560.00;;;15.10
25514;BMP180;48128;54.242;10.280;2022-09-03T00:14:02;101570.00;;;15.20
25514;BMP180;48128;54.242;10.280;2022-09-03T00:17:08;101566.00;;;15.10
25514;BMP180;48128;54.242;10.280;2022-09-03T00:19:30;101566.00;;;15.20
25514;BMP180;48128;54.242;10.280;2022-09-03T00:22:10;101557.00;;;15.10
25514;BMP180;48128;54.242;10.280;2022-09-03T00:24:40;101558.00;;;15.10
25514;BMP180;48128;54.242;10.280;2022-09-03T00:27:12;101566.00;;;15.10
25514;BMP180;48128;54.242;10.280;2022-09-03T00:29:48;101564.00;;;15.10
25514;BMP180;48128;54.242;10.280;2022-09-03T00:32:42;101558.00;;;15.10
25514;BMP180;48128;54.242;10.280;2022-09-03T00:35:28;101556.00;;;15.10
25514;BMP180;48128;54.242;10.280;2022-09-03T00:37:57;101550.00;;;15.10
25514;BMP180;48128;54.242;10.280;2022-09-03T00:46:03;101557.00;;;15.10
25514;BMP180;48128;54.242;10.280;2022-09-03T00:49:23;101552.00;;;15.10
25514;BMP180;48128;54.242;10.280;2022-09-03T00:59:34;101557.00;;;15.20
25514;BMP180;48128;54.242;10.280;2022-09-03T01:02:12;101558.00;;;15.20
25514;BMP180;48128;54.242;10.280;2022-09-03T01:12:57;101548.00;;;15.10
25514;BMP180;48128;54.242;10.280;2022-09-03T01:15:39;101544.00;;;15.10
25514;BMP180;48128;54.242;10.280;2022-09-03T01:20:59;101542.00;;;15.10
25514;BMP180;48128;54.242;10.280;2022-09-03T01:23:42;101545.00;;;15.00
25514;BMP180;48128;54.242;10.280;2022-09-03T01:29:09;101551.00;;;15.00
25514;BMP180;48128;54.242;10.280;2022-09-03T01:42:32;101554.00;;;15.00
25514;BMP180;48128;54.242;10.280;2022-09-03T02:01:44;101530.00;;;14.70
25514;BMP180;48128;54.242;10.280;2022-09-03T02:04:17;101523.00;;;14.70
25514;BMP180;48128;54.242;10.280;2022-09-03T02:06:46;101528.00;;;14.60
25514;BMP180;48128;54.242;10.280;2022-09-03T02:09:15;101527.00;;;14.60
25514;BMP180;48128;54.242;10.280;2022-09-03T02:11:43;101538.00;;;14.60
25514;BMP180;48128;54.242;10.280;2022-09-03T02:14:12;101521.00;;;14.60
25514;BMP180;48128;54.242;10.280;2022-09-03T02:16:39;101537.00;;;14.60
25514;BMP180;48128;54.242;10.280;2022-09-03T02:19:08;101534.00;;;14.60
25514;BMP180;48128;54.242;10.280;2022-09-03T02:21:38;101531.00;;;14.50
25514;BMP180;48128;54.242;10.280;2022-09-03T02:24:06;101519.00;;;14.50
25514;BMP180;48128;54.242;10.280;2022-09-03T02:26:34;101524.00;;;14.50
25514;BMP180;48128;54.242;10.280;2022-09-03T02:29:02;101521.00;;;14.50
25514;BMP180;48128;54.242;10.280;2022-09-03T02:31:29;101519.00;;;14.50
25514;BMP180;48128;54.242;10.280;2022-09-03T02:33:56;101519.00;;;14.40
25514;BMP180;48128;54.242;10.280;2022-09-03T02:36:26;101512.00;;;14.30
25514;BMP180;48128;54.242;10.280;2022-09-03T02:38:54;101513.00;;;14.30
25514;BMP180;48128;54.242;10.280;2022-09-03T02:41:21;101498.00;;;14.30
25514;BMP180;48128;54.242;10.280;2022-09-03T02:43:58;101510.00;;;14.20
25514;BMP180;48128;54.242;10.280;2022-09-03T02:46:49;101501.00;;;14.20
25514;BMP180;48128;54.242;10.280;2022-09-03T02:49:17;101502.00;;;14.20
25514;BMP180;48128;54.242;10.280;2022-09-03T02:51:44;101502.00;;;14.20
25514;BMP180;48128;54.242;10.280;2022-09-03T02:54:11;101497.00;;;14.20
25514;BMP180;48128;54.242;10.280;2022-09-03T02:56:44;101497.00;;;14.10
25514;BMP180;48128;54.242;10.280;2022-09-03T02:59:14;101493.00;;;14.10
25514;BMP180;48128;54.242;10.280;2022-09-03T03:01:43;101496.00;;;14.00
25514;BMP180;48128;54.242;10.280;2022-09-03T03:04:12;101492.00;;;14.00
25514;BMP180;48128;54.242;10.280;2022-09-03T03:06:39;101499.00;;;13.90
25514;BMP180;48128;54.242;10.280;2022-09-03T03:09:06;101494.00;;;13.90
25514;BMP180;48128;54.242;10.280;2022-09-03T03:11:34;101500.00;;;13.90
25514;BMP180;48128;54.242;10.280;2022-09-03T03:14:02;101499.00;;;13.80
25514;BMP180;48128;54.242;10.280;2022-09-03T03:16:29;101494.00;;;13.80
25514;BMP180;48128;54.242;10.280;2022-09-03T03:18:56;101503.00;;;13.70
25514;BMP180;48128;54.242;10.280;2022-09-03T03:21:23;101496.00;;;13.60
25514;BMP180;48128;54.242;10.280;2022-09-03T03:23:51;101494.00;;;13.60
25514;BMP180;48128;54.242;10.280;2022-09-03T03:26:19;101504.00;;;13.60
25514;BMP180;48128;54.242;10.280;2022-09-03T03:28:46;101494.00;;;13.50
25514;BMP180;48128;54.242;10.280;2022-09-03T03:31:17;101499.00;;;13.50
25514;BMP180;48128;54.242;10.280;2022-09-03T03:33:49;101499.00;;;13.50
25514;BMP180;48128;54.242;10.280;2022-09-03T03:36:16;101486.00;;;13.40
25514;BMP180;48128;54.242;10.280;2022-09-03T03:38:44;101496.00;;;13.30
25514;BMP180;48128;54.242;10.280;2022-09-03T03:41:17;101490.00;;;13.30
25514;BMP180;48128;54.242;10.280;2022-09-03T03:43:44;101486.00;;;13.20
25514;BMP180;48128;54.242;10.280;2022-09-03T03:46:11;101492.00;;;13.20
25514;BMP180;48128;54.242;10.280;2022-09-03T03:48:38;101496.00;;;13.10
25514;BMP180;48128;54.242;10.280;2022-09-03T03:51:07;101491.00;;;13.10
25514;BMP180;48128;54.242;10.280;2022-09-03T03:53:35;101495.00;;;13.00
25514;BMP180;48128;54.242;10.280;2022-09-03T03:56:05;101494.00;;;12.90
25514;BMP180;48128;54.242;10.280;2022-09-03T03:58:33;101501.00;;;12.80
25514;BMP180;48128;54.242;10.280;2022-09-03T04:01:20;101493.00;;;12.80
25514;BMP180;48128;54.242;10.280;2022-09-03T04:03:48;101504.00;;;12.70
25514;BMP180;48128;54.242;10.280;2022-09-03T04:06:17;101493.00;;;12.60
25514;BMP180;48128;54.242;10.280;2022-09-03T04:08:47;101504.00;;;12.60
25514;BMP180;48128;54.242;10.280;2022-09-03T04:11:18;101508.00;;;12.50
25514;BMP180;48128;54.242;10.280;2022-09-03T04:13:46;101502.00;;;12.50
25514;BMP180;48128;54.242;10.280;2022-09-03T04:16:18;101510.00;;;12.40
25514;BMP180;48128;54.242;10.280;2022-09-03T04:18:45;101505.00;;;12.40
25514;BMP180;48128;54.242;10.280;2022-09-03T04:21:20;101502.00;;;12.30
25514;BMP180;48128;54.242;10.280;2022-09-03T04:23:48;101511.00;;;12.30
25514;BMP180;48128;54.242;10.280;2022-09-03T04:26:17;101506.00;;;12.20
25514;BMP180;48128;54.242;10.280;2022-09-03T04:28:45;101509.00;;;12.20
25514;BMP180;48128;54.242;10.280;2022-09-03T04:31:15;101510.00;;;12.10
25514;BMP180;48128;54.242;10.280;2022-09-03T04:33:42;101510.00;;;12.10
25514;BMP180;48128;54.242;10.280;2022-09-03T04:36:14;101508.00;;;12.00
25514;BMP180;48128;54.242;10.280;2022-09-03T04:38:43;101520.00;;;12.00
25514;BMP180;48128;54.242;10.280;2022-09-03T04:41:12;101512.00;;;12.00
25514;BMP180;48128;54.242;10.280;2022-09-03T04:43:39;101510.00;;;11.90
25514;BMP180;48128;54.242;10.280;2022-09-03T04:46:10;101505.00;;;11.90
25514;BMP180;48128;54.242;10.280;2022-09-03T04:48:47;101510.00;;;11.90
25514;BMP180;48128;54.242;10.280;2022-09-03T04:51:16;101507.00;;;11.80
25514;BMP180;48128;54.242;10.280;2022-09-03T04:53:44;101512.00;;;11.80
25514;BMP180;48128;54.242;10.280;2022-09-03T04:56:13;101503.00;;;11.80
25514;BMP180;48128;54.242;10.280;2022-09-03T04:58:41;101513.00;;;11.80
25514;BMP180;48128;54.242;10.280;2022-09-03T05:01:11;101502.00;;;11.70
25514;BMP180;48128;54.242;10.280;2022-09-03T05:03:38;101509.00;;;11.70
25514;BMP180;48128;54.242;10.280;2022-09-03T05:06:05;101511.00;;;11.70
25514;BMP180;48128;54.242;10.280;2022-09-03T05:08:34;101513.00;;;11.70
25514;BMP180;48128;54.242;10.280;2022-09-03T05:11:06;101514.00;;;11.60
25514;BMP180;48128;54.242;10.280;2022-09-03T05:13:34;101516.00;;;11.60
25514;BMP180;48128;54.242;10.280;2022-09-03T05:16:07;101521.00;;;11.60
25514;BMP180;48128;54.242;10.280;2022-09-03T05:18:35;101511.00;;;11.60
25514;BMP180;48128;54.242;10.280;2022-09-03T05:21:04;101516.00;;;11.60
25514;BMP180;48128;54.242;10.280;2022-09-03T05:23:35;101526.00;;;11.60
25514;BMP180;48128;54.242;10.280;2022-09-03T05:26:05;101525.00;;;11.60
25514;BMP180;48128;54.242;10.280;2022-09-03T05:28:38;101524.00;;;11.60
25514;BMP180;48128;54.242;10.280;2022-09-03T05:31:25;101525.00;;;11.70
25514;BMP180;48128;54.242;10.280;2022-09-03T05:33:56;101521.00;;;11.70
25514;BMP180;48128;54.242;10.280;2022-09-03T05:36:28;101522.00;;;11.80
25514;BMP180;48128;54.242;10.280;2022-09-03T05:38:56;101530.00;;;11.90
25514;BMP180;48128;54.242;10.280;2022-09-03T05:41:25;101531.00;;;12.00
25514;BMP180;48128;54.242;10.280;2022-09-03T05:43:53;101520.00;;;12.10
25514;BMP180;48128;54.242;10.280;2022-09-03T05:46:29;101521.00;;;12.20
25514;BMP180;48128;54.242;10.280;2022-09-03T05:49:06;101515.00;;;12.30
25514;BMP180;48128;54.242;10.280;2022-09-03T05:51:34;101523.00;;;12.40
25514;BMP180;48128;54.242;10.280;2022-09-03T05:54:02;101509.00;;;12.40
25514;BMP180;48128;54.242;10.280;2022-09-03T05:56:35;101534.00;;;12.50
25514;BMP180;48128;54.242;10.280;2022-09-03T05:59:04;101527.00;;;12.60
25514;BMP180;48128;54.242;10.280;2022-09-03T06:01:39;101524.00;;;12.70
25514;BMP180;48128;54.242;10.280;2022-09-03T06:04:13;101526.00;;;12.80
25514;BMP180;48128;54.242;10.280;2022-09-03T06:06:41;101521.00;;;12.90
25514;BMP180;48128;54.242;10.280;2022-09-03T06:09:19;101533.00;;;13.00
25514;BMP180;48128;54.242;10.280;2022-09-03T06:11:49;101525.00;;;13.10
25514;BMP180;48128;54.242;10.280;2022-09-03T06:14:18;101536.00;;;13.20
25514;BMP180;48128;54.242;10.280;2022-09-03T06:16:46;101538.00;;;13.30
25514;BMP180;48128;54.242;10.280;2022-09-03T06:19:18;101551.00;;;13.40
25514;BMP180;48128;54.242;10.280;2022-09-03T06:21:45;101545.00;;;13.60
25514;BMP180;48128;54.242;10.280;2022-09-03T06:24:19;101548.00;;;13.70
25514;BMP180;48128;54.242;10.280;2022-09-03T06:26:53;101558.00;;;13.80
25514;BMP180;48128;54.242;10.280;2022-09-03T06:29:20;101564.00;;;13.90
25514;BMP180;48128;54.242;10.280;2022-09-03T06:31:47;101564.00;;;14.00
25514;BMP180;48128;54.242;10.280;2022-09-03T06:34:14;101578.00;;;14.10
25514;BMP180;48128;54.242;10.280;2022-09-03T06:36:44;101592.00;;;14.20
25514;BMP180;48128;54.242;10.280;2022-09-03T06:39:11;101595.00;;;14.30
25514;BMP180;48128;54.242;10.280;2022-09-03T06:41:38;101594.00;;;14.40
25514;BMP180;48128;54.242;10.280;2022-09-03T06:44:06;101596.00;;;14.50
25514;BMP180;48128;54.242;10.280;2022-09-03T06:46:38;101604.00;;;14.60
25514;BMP180;48128;54.242;10.280;2022-09-03T06:49:08;101586.00;;;14.70
25514;BMP180;48128;54.242;10.280;2022-09-03T06:51:35;101609.00;;;14.70
25514;BMP180;48128;54.242;10.280;2022-09-03T06:54:07;101607.00;;;14.80
25514;BMP180;48128;54.242;10.280;2022-09-03T06:56:36;101593.00;;;14.90
25514;BMP180;48128;54.242;10.280;2022-09-03T06:59:11;101585.00;;;14.90
25514;BMP180;48128;54.242;10.280;2022-09-03T07:01:38;101619.00;;;15.00
25514;BMP180;48128;54.242;10.280;2022-09-03T07:04:10;101623.00;;;15.10
25514;BMP180;48128;54.242;10.280;2022-09-03T07:06:39;101622.00;;;15.20
25514;BMP180;48128;54.242;10.280;2022-09-03T07:09:06;101613.00;;;15.20
25514;BMP180;48128;54.242;10.280;2022-09-03T07:11:34;101633.00;;;15.40
25514;BMP180;48128;54.242;10.280;2022-09-03T07:14:03;101648.00;;;15.40
25514;BMP180;48128;54.242;10.280;2022-09-03T07:16:35;101649.00;;;15.50
25514;BMP180;48128;54.242;10.280;2022-09-03T07:19:03;101655.00;;;15.60
25514;BMP180;48128;54.242;10.280;2022-09-03T07:21:32;101655.00;;;15.60
25514;BMP180;48128;54.242;10.280;2022-09-03T07:23:59;101664.00;;;15.60
25514;BMP180;48128;54.242;10.280;2022-09-03T07:26:29;101657.00;;;15.70
25514;BMP180;48128;54.242;10.280;2022-09-03T07:28:57;101667.00;;;15.80
25514;BMP180;48128;54.242;10.280;2022-09-03T07:31:27;101653.00;;;15.80
25514;BMP180;48128;54.242;10.280;2022-09-03T07:34:03;101683.00;;;15.90
25514;BMP180;48128;54.242;10.280;2022-09-03T07:36:43;101677.00;;;16.00
25514;BMP180;48128;54.242;10.280;2022-09-03T07:39:14;101682.00;;;16.00
25514;BMP180;48128;54.242;10.280;2022-09-03T07:41:42;101703.00;;;16.10
25514;BMP180;48128;54.242;10.280;2022-09-03T07:44:12;101678.00;;;16.20
25514;BMP180;48128;54.242;10.280;2022-09-03T07:46:41;101685.00;;;16.30
25514;BMP180;48128;54.242;10.280;2022-09-03T07:49:17;101717.00;;;16.50
25514;BMP180;48128;54.242;10.280;2022-09-03T07:51:45;101701.00;;;16.60
25514;BMP180;48128;54.242;10.280;2022-09-03T07:54:16;101724.00;;;16.70
25514;BMP180;48128;54.242;10.280;2022-09-03T07:56:42;101700.00;;;16.80
25514;BMP180;48128;54.242;10.280;2022-09-03T07:59:09;101707.00;;;16.90
25514;BMP180;48128;54.242;10.280;2022-09-03T08:01:37;101712.00;;;17.00
25514;BMP180;48128;54.242;10.280;2022-09-03T08:04:07;101724.00;;;17.20
25514;BMP180;48128;54.242;10.280;2022-09-03T08:06:36;101695.00;;;17.30
25514;BMP180;48128;54.242;10.280;2022-09-03T08:09:06;101721.00;;;17.40
25514;BMP180;48128;54.242;10.280;2022-09-03T08:11:36;101695.00;;;17.50
25514;BMP180;48128;54.242;10.280;2022-09-03T08:14:08;101729.00;;;17.60
25514;BMP180;48128;54.242;10.280;2022-09-03T08:16:37;101728.00;;;17.80
25514;BMP180;48128;54.242;10.280;2022-09-03T08:19:08;101715.00;;;17.80
25514;BMP180;48128;54.242;10.280;2022-09-03T08:21:35;101718.00;;;17.80
25514;BMP180;48128;54.242;10.280;2022-09-03T08:24:02;101719.00;;;17.70
25514;BMP180;48128;54.242;10.280;2022-09-03T08:26:37;101725.00;;;17.70
25514;BMP180;48128;54.242;10.280;2022-09-03T08:29:05;101720.00;;;17.50
25514;BMP180;48128;54.242;10.280;2022-09-03T08:31:33;101723.00;;;17.40
25514;BMP180;48128;54.242;10.280;2022-09-03T08:34:04;101731.00;;;17.30
25514;BMP180;48128;54.242;10.280;2022-09-03T08:36:35;101712.00;;;17.30
25514;BMP180;48128;54.242;10.280;2022-09-03T08:39:05;101718.00;;;17.40
25514;BMP180;48128;54.242;10.280;2022-09-03T08:44:51;101714.00;;;17.90
25514;BMP180;48128;54.242;10.280;2022-09-03T08:47:32;101731.00;;;18.10
25514;BMP180;48128;54.242;10.280;2022-09-03T08:52:47;101733.00;;;18.50
25514;BMP180;48128;54.242;10.280;2022-09-03T09:09:33;101769.00;;;19.50
25514;BMP180;48128;54.242;10.280;2022-09-03T09:17:50;101758.00;;;20.00
25514;BMP180;48128;54.242;10.280;2022-09-03T09:20:25;101757.00;;;20.00
25514;BMP180;48128;54.242;10.280;2022-09-03T09:23:03;101768.00;;;20.00
25514;BMP180;48128;54.242;10.280;2022-09-03T09:25:33;101769.00;;;20.20
25514;BMP180;48128;54.242;10.280;2022-09-03T09:30:47;101764.00;;;20.50
25514;BMP180;48128;54.242;10.280;2022-09-03T09:33:15;101786.00;;;20.40
25514;BMP180;48128;54.242;10.280;2022-09-03T09:35:43;101764.00;;;20.40
25514;BMP180;48128;54.242;10.280;2022-09-03T09:38:10;101756.00;;;20.50
25514;BMP180;48128;54.242;10.280;2022-09-03T09:40:40;101763.00;;;20.50
25514;BMP180;48128;54.242;10.280;2022-09-03T09:43:12;101769.00;;;20.70
25514;BMP180;48128;54.242;10.280;2022-09-03T09:45:44;101765.00;;;20.90
25514;BMP180;48128;54.242;10.280;2022-09-03T09:48:30;101786.00;;;21.10
25514;BMP180;48128;54.242;10.280;2022-09-03T09:51:18;101760.00;;;21.30
25514;BMP180;48128;54.242;10.280;2022-09-03T09:53:45;101778.00;;;21.40
25514;BMP180;48128;54.242;10.280;2022-09-03T09:56:23;101772.00;;;21.60
25514;BMP180;48128;54.242;10.280;2022-09-03T09:59:08;101735.00;;;21.50
25514;BMP180;48128;54.242;10.280;2022-09-03T10:01:40;101771.00;;;21.30
25514;BMP180;48128;54.242;10.280;2022-09-03T10:04:23;101778.00;;;21.20
25514;BMP180;48128;54.242;10.280;2022-09-03T10:09:31;101759.00;;;21.20
25514;BMP180;48128;54.242;10.280;2022-09-03T10:12:21;101757.00;;;21.20
25514;BMP180;48128;54.242;10.280;2022-09-03T10:15:05;101779.00;;;21.20
25514;BMP180;48128;54.242;10.280;2022-09-03T10:22:55;101762.00;;;21.50
25514;BMP180;48128;54.242;10.280;2022-09-03T10:25:50;101735.00;;;21.60
25514;BMP180;48128;54.242;10.280;2022-09-03T10:28:26;101770.00;;;21.50
25514;BMP180;48128;54.242;10.280;2022-09-03T10:34:14;101728.00;;;21.70
25514;BMP180;48128;54.242;10.280;2022-09-03T10:59:18;101745.00;;;21.90
25514;BMP180;48128;54.242;10.280;2022-09-03T11:07:58;101770.00;;;21.80
25514;BMP180;48128;54.242;10.280;2022-09-03T11:10:31;101741.00;;;21.70
25514;BMP180;48128;54.242;10.280;2022-09-03T11:15:58;101736.00;;;21.60
25514;BMP180;48128;54.242;10.280;2022-09-03T11:18:43;101716.00;;;21.60
25514;BMP180;48128;54.242;10.280;2022-09-03T11:21:19;101721.00;;;21.60
25514;BMP180;48128;54.242;10.280;2022-09-03T11:23:51;101720.00;;;21.70
25514;BMP180;48128;54.242;10.280;2022-09-03T11:26:21;101701.00;;;21.50
25514;BMP180;48128;54.242;10.280;2022-09-03T11:29:23;101723.00;;;21.20
25514;BMP180;48128;54.242;10.280;2022-09-03T11:32:08;101721.00;;;21.20
25514;BMP180;48128;54.242;10.280;2022-09-03T11:37:20;101704.00;;;21.20
25514;BMP180;48128;54.242;10.280;2022-09-03T11:39:55;101717.00;;;21.20
25514;BMP180;48128;54.242;10.280;2022-09-03T11:42:28;101715.00;;;21.30
25514;BMP180;48128;54.242;10.280;2022-09-03T11:45:19;101724.00;;;21.20
25514;BMP180;48128;54.242;10.280;2022-09-03T11:47:58;101705.00;;;21.20
25514;BMP180;48128;54.242;10.280;2022-09-03T11:50:27;101704.00;;;21.40
25514;BMP180;48128;54.242;10.280;2022-09-03T11:53:09;101698.00;;;21.70
25514;BMP180;48128;54.242;10.280;2022-09-03T11:58:22;101735.00;;;22.50
25514;BMP180;48128;54.242;10.280;2022-09-03T12:01:12;101731.00;;;22.40
25514;BMP180;48128;54.242;10.280;2022-09-03T12:04:02;101730.00;;;22.30
25514;BMP180;48128;54.242;10.280;2022-09-03T12:07:13;101729.00;;;22.40
25514;BMP180;48128;54.242;10.280;2022-09-03T12:12:39;101736.00;;;22.60
25514;BMP180;48128;54.242;10.280;2022-09-03T12:18:27;101739.00;;;22.30
25514;BMP180;48128;54.242;10.280;2022-09-03T12:23:27;101695.00;;;22.50
25514;BMP180;48128;54.242;10.280;2022-09-03T12:25:54;101700.00;;;22.40
25514;BMP180;48128;54.242;10.280;2022-09-03T12:28:23;101677.00;;;22.20
25514;BMP180;48128;54.242;10.280;2022-09-03T12:30:51;101705.00;;;22.10
25514;BMP180;48128;54.242;10.280;2022-09-03T12:33:20;101691.00;;;22.00
25514;BMP180;48128;54.242;10.280;2022-09-03T12:35:58;101674.00;;;22.00
25514;BMP180;48128;54.242;10.280;2022-09-03T12:38:27;101673.00;;;22.20
25514;BMP180;48128;54.242;10.280;2022-09-03T12:40:55;101687.00;;;22.10
25514;BMP180;48128;54.242;10.280;2022-09-03T12:43:49;101682.00;;;22.30
25514;BMP180;48128;54.242;10.280;2022-09-03T12:46:18;101694.00;;;22.40
25514;BMP180;48128;54.242;10.280;2022-09-03T12:49:03;101657.00;;;22.20
25514;BMP180;48128;54.242;10.280;2022-09-03T12:52:01;101685.00;;;22.20
25514;BMP180;48128;54.242;10.280;2022-09-03T12:54:33;101674.00;;;22.20
25514;BMP180;48128;54.242;10.280;2022-09-03T12:57:02;101638.00;;;22.30
25514;BMP180;48128;54.242;10.280;2022-09-03T12:59:32;101665.00;;;22.40
25514;BMP180;48128;54.242;10.280;2022-09-03T13:02:10;101678.00;;;22.40
25514;BMP180;48128;54.242;10.280;2022-09-03T13:04:38;101688.00;;;22.40
25514;BMP180;48128;54.242;10.280;2022-09-03T13:07:14;101680.00;;;22.10
25514;BMP180;48128;54.242;10.280;2022-09-03T13:09:47;101646.00;;;22.10
25514;BMP180;48128;54.242;10.280;2022-09-03T13:12:42;101656.00;;;22.10
25514;BMP180;48128;54.242;10.280;2022-09-03T13:15:34;101652.00;;;22.20
25514;BMP180;48128;54.242;10.280;2022-09-03T13:18:08;101652.00;;;22.30
25514;BMP180;48128;54.242;10.280;2022-09-03T13:29:49;101657.00;;;21.90
25514;BMP180;48128;54.242;10.280;2022-09-03T13:33:04;101640.00;;;21.70
25514;BMP180;48128;54.242;10.280;2022-09-03T13:35:59;101639.00;;;21.70
25514;BMP180;48128;54.242;10.280;2022-09-03T13:44:40;101643.00;;;21.80
25514;BMP180;48128;54.242;10.280;2022-09-03T13:46:53;101638.00;;;21.50
25514;BMP180;48128;54.242;10.280;2022-09-03T13:52:42;101614.00;;;21.40
25514;BMP180;48128;54.242;10.280;2022-09-03T13:58:33;101649.00;;;21.80
25514;BMP180;48128;54.242;10.280;2022-09-03T14:01:14;101637.00;;;21.90
25514;BMP180;48128;54.242;10.280;2022-09-03T14:03:47;101657.00;;;22.00
25514;BMP180;48128;54.242;10.280;2022-09-03T14:06:44;101638.00;;;21.90
25514;BMP180;48128;54.242;10.280;2022-09-03T14:09:50;101649.00;;;22.00
25514;BMP180;48128;54.242;10.280;2022-09-03T14:12:40;101638.00;;;22.10
25514;BMP180;48128;54.242;10.280;2022-09-03T14:15:34;101626.00;;;21.90
25514;BMP180;48128;54.242;10.280;2022-09-03T14:21:15;101605.00;;;21.70
25514;BMP180;48128;54.242;10.280;2022-09-03T14:24:00;101602.00;;;21.60
25514;BMP180;48128;54.242;10.280;2022-09-03T14:27:00;101651.00;;;21.70
25514;BMP180;48128;54.242;10.280;2022-09-03T14:29:32;101629.00;;;21.60
25514;BMP180;48128;54.242;10.280;2022-09-03T14:32:21;101653.00;;;21.50
25514;BMP180;48128;54.242;10.280;2022-09-03T14:35:04;101638.00;;;21.60
25514;BMP180;48128;54.242;10.280;2022-09-03T14:37:56;101646.00;;;21.70
25514;BMP180;48128;54.242;10.280;2022-09-03T14:51:54;101633.00;;;22.10
25514;BMP180;48128;54.242;10.280;2022-09-03T15:10:41;101623.00;;;21.30
25514;BMP180;48128;54.242;10.280;2022-09-03T15:18:31;101603.00;;;21.30
25514;BMP180;48128;54.242;10.280;2022-09-03T15:29:51;101612.00;;;20.80
25514;BMP180;48128;54.242;10.280;2022-09-03T15:32:45;101585.00;;;20.90
25514;BMP180;48128;54.242;10.280;2022-09-03T15:38:39;101608.00;;;21.20
25514;BMP180;48128;54.242;10.280;2022-09-03T15:41:28;101609.00;;;21.30
25514;BMP180;48128;54.242;10.280;2022-09-03T15:43:59;101614.00;;;21.30
25514;BMP180;48128;54.242;10.280;2022-09-03T15:49:54;101599.00;;;20.90
25514;BMP180;48128;54.242;10.280;2022-09-03T15:52:29;101596.00;;;20.60
25514;BMP180;48128;54.242;10.280;2022-09-03T15:55:08;101585.00;;;20.40
25514;BMP180;48128;54.242;10.280;2022-09-03T16:00:50;101573.00;;;20.00
25514;BMP180;48128;54.242;10.280;2022-09-03T16:03:52;101560.00;;;19.90
25514;BMP180;48128;54.242;10.280;2022-09-03T16:12:20;101573.00;;;20.00
25514;BMP180;48128;54.242;10.280;2022-09-03T16:15:11;101571.00;;;20.00
25514;BMP180;48128;54.242;10.280;2022-09-03T16:18:03;101571.00;;;19.90
25514;BMP180;48128;54.242;10.280;2022-09-03T16:23:20;101587.00;;;19.80
25514;BMP180;48128;54.242;10.280;2022-09-03T16:25:59;101582.00;;;19.70
25514;BMP180;48128;54.242;10.280;2022-09-03T16:37:29;101547.00;;;19.80
25514;BMP180;48128;54.242;10.280;2022-09-03T16:46:12;101541.00;;;19.80
25514;BMP180;48128;54.242;10.280;2022-09-03T17:07:59;101522.00;;;19.40
25514;BMP180;48128;54.242;10.280;2022-09-03T17:10:49;101516.00;;;19.30
25514;BMP180;48128;54.242;10.280;2022-09-03T17:16:23;101514.00;;;19.10
25514;BMP180;48128;54.242;10.280;2022-09-03T17:24:51;101484.00;;;18.90
25514;BMP180;48128;54.242;10.280;2022-09-03T17:27:40;101491.00;;;18.80
25514;BMP180;48128;54.242;10.280;2022-09-03T17:44:14;101514.00;;;18.50
25514;BMP180;48128;54.242;10.280;2022-09-03T17:49:26;101526.00;;;18.30
25514;BMP180;48128;54.242;10.280;2022-09-03T17:52:05;101528.00;;;18.20
25514;BMP180;48128;54.242;10.280;2022-09-03T17:54:42;101532.00;;;18.10
25514;BMP180;48128;54.242;10.280;2022-09-03T18:02:44;101553.00;;;18.00
25514;BMP180;48128;54.242;10.280;2022-09-03T18:10:52;101509.00;;;17.80
25514;BMP180;48128;54.242;10.280;2022-09-03T18:18:45;101504.00;;;17.60
25514;BMP180;48128;54.242;10.280;2022-09-03T18:21:18;101509.00;;;17.60
25514;BMP180;48128;54.242;10.280;2022-09-03T18:24:20;101510.00;;;17.50
25514;BMP180;48128;54.242;10.280;2022-09-03T18:27:38;101522.00;;;17.50
25514;BMP180;48128;54.242;10.280;2022-09-03T18:30:28;101523.00;;;17.50
25514;BMP180;48128;54.242;10.280;2022-09-03T18:33:23;101527.00;;;17.40
25514;BMP180;48128;54.242;10.280;2022-09-03T18:36:10;101525.00;;;17.40
25514;BMP180;48128;54.242;10.280;2022-09-03T18:51:40;101534.00;;;17.10
25514;BMP180;48128;54.242;10.280;2022-09-03T19:01:07;101550.00;;;17.10
25514;BMP180;48128;54.242;10.280;2022-09-03T19:10:40;101557.00;;;17.00
25514;BMP180;48128;54.242;10.280;2022-09-03T19:15:58;101562.00;;;16.90
25514;BMP180;48128;54.242;10.280;2022-09-03T19:22:09;101568.00;;;16.90
25514;BMP180;48128;54.242;10.280;2022-09-03T19:25:10;101577.00;;;16.80
25514;BMP180;48128;54.242;10.280;2022-09-03T19:46:39;101588.00;;;16.70
25514;BMP180;48128;54.242;10.280;2022-09-03T19:55:33;101588.00;;;16.50
25514;BMP180;48128;54.242;10.280;2022-09-03T19:58:34;101587.00;;;16.50
25514;BMP180;48128;54.242;10.280;2022-09-03T20:01:36;101581.00;;;16.40
25514;BMP180;48128;54.242;10.280;2022-09-03T20:04:42;101576.00;;;16.40
25514;BMP180;48128;54.242;10.280;2022-09-03T20:07:29;101581.00;;;16.40
25514;BMP180;48128;54.242;10.280;2022-09-03T20:10:16;101566.00;;;16.30
25514;BMP180;48128;54.242;10.280;2022-09-03T20:15:27;101581.00;;;16.30
25514;BMP180;48128;54.242;10.280;2022-09-03T20:18:01;101576.00;;;16.20
25514;BMP180;48128;54.242;10.280;2022-09-03T20:28:53;101583.00;;;16.10
25514;BMP180;48128;54.242;10.280;2022-09-03T20:31:27;101570.00;;;16.10
25514;BMP180;48128;54.242;10.280;2022-09-03T20:37:13;101569.00;;;16.00
25514;BMP180;48128;54.242;10.280;2022-09-03T20:53:40;101579.00;;;15.90
25514;BMP180;48128;54.242;10.280;2022-09-03T21:02:56;101576.00;;;15.80